createdAt,value
2019-06-19T00:00:52.296Z,"    0"
2019-06-19T00:05:48.102Z,"    0"
2019-06-19T00:10:45.095Z,"    0"
2019-06-19T00:15:40.321Z,"    0"
2019-06-19T00:20:36.352Z,"    0"
2019-06-19T00:25:33.647Z,"    0"
2019-06-19T00:30:32.272Z,"    0"
2019-06-19T00:35:27.293Z,"    0"
2019-06-19T00:40:23.142Z,"    0"
2019-06-19T00:45:20.730Z,"    0"
2019-06-19T00:50:16.335Z,"    0"
2019-06-19T00:55:12.229Z,"    0"
2019-06-19T01:00:07.964Z,"    0"
2019-06-19T01:05:04.824Z,"    0"
2019-06-19T01:10:01.587Z,"    0"
2019-06-19T01:14:57.267Z,"    0"
2019-06-19T01:19:53.077Z,"    0"
2019-06-19T01:24:50.952Z,"    0"
2019-06-19T01:29:46.841Z,"    0"
2019-06-19T01:34:43.449Z,"    0"
2019-06-19T01:39:40.897Z,"    0"
2019-06-19T01:44:36.572Z,"    0"
2019-06-19T01:49:33.479Z,"    0"
2019-06-19T01:54:32.020Z,"    0"
2019-06-19T01:59:30.979Z,"    0"
2019-06-19T02:04:26.161Z,"    0"
2019-06-19T02:09:22.428Z,"    0"
2019-06-19T02:14:21.027Z,"    0"
2019-06-19T02:19:20.126Z,"    0"
2019-06-19T02:24:16.582Z,"    0"
2019-06-19T02:29:12.320Z,"    4"
2019-06-19T02:34:12.259Z,"    4"
2019-06-19T02:39:07.903Z,"    4"
2019-06-19T02:44:03.784Z,"   16"
2019-06-19T02:48:59.479Z,"   24"
2019-06-19T02:53:55.274Z,"   40"
2019-06-19T02:58:50.894Z,"   60"
2019-06-19T03:03:47.328Z,"   96"
2019-06-19T03:08:42.833Z,"  132"
2019-06-19T03:13:40.518Z,"  168"
2019-06-19T03:18:36.370Z,"  220"
2019-06-19T03:23:32.160Z,"  284"
2019-06-19T03:28:28.111Z,"  348"
2019-06-19T03:33:25.357Z,"  432"
2019-06-19T03:38:21.355Z,"  536"
2019-06-19T03:43:17.145Z,"  676"
2019-06-19T03:48:13.048Z,"  816"
2019-06-19T03:53:08.989Z," 1068"
2019-06-19T03:58:04.893Z," 1440"
2019-06-19T04:03:00.798Z," 1444"
2019-06-19T04:07:56.739Z," 1544"
2019-06-19T04:12:52.711Z," 1612"
2019-06-19T04:17:48.751Z," 1780"
2019-06-19T04:22:44.638Z," 1740"
2019-06-19T04:27:40.830Z," 1880"
2019-06-19T04:32:36.668Z," 2888"
2019-06-19T04:37:33.195Z," 7188"
2019-06-19T04:42:30.718Z," 7516"
2019-06-19T04:47:28.356Z," 8644"
2019-06-19T04:52:25.550Z," 8964"
2019-06-19T04:57:22.765Z,10160
2019-06-19T05:02:21.567Z,10844
2019-06-19T05:07:17.962Z,12008
2019-06-19T05:12:15.247Z,13232
2019-06-19T05:17:11.977Z,15264
2019-06-19T05:22:08.724Z,15936
2019-06-19T05:27:06.552Z,18336
2019-06-19T05:32:03.848Z,17856
2019-06-19T05:37:00.086Z,22112
2019-06-19T05:41:56.752Z,21216
2019-06-19T05:46:53.214Z,23872
2019-06-19T05:51:50.317Z,21600
2019-06-19T05:56:45.591Z,11096
2019-06-19T06:01:39.899Z," 4480"
2019-06-19T06:06:35.061Z," 4404"
2019-06-19T06:11:29.450Z," 4412"
2019-06-19T06:16:24.479Z," 4424"
2019-06-19T06:21:19.753Z," 4480"
2019-06-19T06:26:15.392Z," 4444"
2019-06-19T06:31:10.954Z," 4364"
2019-06-19T06:36:06.991Z," 4392"
2019-06-19T06:41:02.702Z," 4332"
2019-06-19T06:45:58.878Z," 4248"
2019-06-19T06:50:56.288Z," 4212"
2019-06-19T06:55:51.812Z," 4132"
2019-06-19T07:00:47.659Z," 4036"
2019-06-19T07:05:43.773Z," 4016"
2019-06-19T07:10:40.024Z," 4004"
2019-06-19T07:15:37.042Z," 4100"
2019-06-19T07:20:32.650Z," 4272"
2019-06-19T07:25:29.102Z," 4384"
2019-06-19T07:30:25.392Z," 5136"
2019-06-19T07:35:21.502Z," 7060"
2019-06-19T07:40:17.518Z," 4748"
2019-06-19T07:45:13.689Z,15648
2019-06-19T07:50:13.297Z,52832
2019-06-19T07:55:14.249Z,48128
2019-06-19T08:00:12.516Z,40288
2019-06-19T08:05:10.365Z,46432
2019-06-19T08:10:07.922Z,52864
2019-06-19T08:15:04.949Z,52544
2019-06-19T08:20:02.922Z,43712
2019-06-19T08:24:59.616Z,41184
2019-06-19T08:29:55.954Z,56256
2019-06-19T08:34:52.354Z,34432
2019-06-19T08:39:48.727Z,61760
2019-06-19T08:44:46.176Z,53536
2019-06-19T08:49:42.463Z,65504
2019-06-19T08:54:38.894Z,62752
2019-06-19T08:59:36.316Z,54912
2019-06-19T09:04:35.112Z,71424
2019-06-19T09:09:30.869Z,80096
2019-06-19T09:14:27.248Z,72544
2019-06-19T09:19:24.429Z,89312
2019-06-19T09:24:20.402Z,28512
2019-06-19T09:29:14.841Z,16544
2019-06-19T09:34:09.691Z,91264
2019-06-19T09:39:05.310Z,13304
2019-06-19T09:43:59.343Z," 9328"
2019-06-19T09:48:54.151Z,22240
2019-06-19T09:53:50.230Z,17632
2019-06-19T09:58:47.824Z,31520
2019-06-19T10:03:44.090Z,65664
2019-06-19T10:08:41.875Z,23008
2019-06-19T10:13:36.575Z,39616
2019-06-19T10:18:32.730Z,22816
2019-06-19T10:23:33.593Z,19072
2019-06-19T10:28:29.573Z,15664
2019-06-19T10:33:26.655Z,63040
2019-06-19T10:38:24.258Z," 8356"
2019-06-19T10:43:18.224Z," 4200"
2019-06-19T10:48:12.369Z," 4692"
2019-06-19T10:53:07.390Z," 5456"
2019-06-19T10:58:02.877Z,18272
2019-06-19T11:02:59.505Z,14076
2019-06-19T11:07:55.712Z,15784
2019-06-19T11:12:51.477Z,11516
2019-06-19T11:17:47.115Z,18144
2019-06-19T11:22:43.642Z,53344
2019-06-19T11:27:42.719Z,69792
2019-06-19T11:32:41.138Z,81792
2019-06-19T11:37:39.719Z,94144
2019-06-19T11:42:37.795Z,40192
2019-06-19T11:47:32.338Z,45888
2019-06-19T11:52:28.632Z,16052
2019-06-19T11:57:26.633Z," 7692"
2019-06-19T12:02:21.763Z,11948
2019-06-19T12:07:19.094Z,16864
2019-06-19T12:12:17.816Z,20640
2019-06-19T12:17:14.684Z,74432
2019-06-19T12:22:11.222Z,13436
2019-06-19T12:27:07.120Z," 9536"
2019-06-19T12:32:02.539Z,34944
2019-06-19T12:36:59.532Z,36992
2019-06-19T12:41:56.658Z,20640
2019-06-19T12:46:53.683Z,66368
2019-06-19T12:51:50.679Z,75616
2019-06-19T12:56:47.771Z,58400
2019-06-19T13:01:44.587Z,53856
2019-06-19T13:06:47.139Z,75552
2019-06-19T13:11:41.829Z,85568
2019-06-19T13:16:37.295Z,73760
2019-06-19T13:21:33.031Z,20832
2019-06-19T13:26:27.732Z,22880
2019-06-19T13:31:22.770Z,41664
2019-06-19T13:36:18.941Z,15888
2019-06-19T13:41:21.354Z,10240
2019-06-19T13:46:14.763Z," 9128"
2019-06-19T13:51:10.166Z," 9248"
2019-06-19T13:56:06.295Z," 8336"
2019-06-19T14:01:03.191Z," 5860"
2019-06-19T14:05:58.488Z," 5244"
2019-06-19T14:10:53.629Z," 2520"
2019-06-19T14:15:50.606Z," 1916"
2019-06-19T14:20:47.129Z," 1180"
2019-06-19T14:25:42.313Z," 1120"
2019-06-19T14:30:37.374Z," 1928"
2019-06-19T14:35:32.239Z," 3328"
2019-06-19T14:40:27.600Z," 5680"
2019-06-19T14:45:23.512Z,12992
2019-06-19T14:50:20.123Z,12408
2019-06-19T14:55:16.677Z,11964
2019-06-19T15:00:14.007Z," 9828"
2019-06-19T15:05:11.077Z,10160
2019-06-19T15:10:06.686Z,10340
2019-06-19T15:15:03.833Z,10088
2019-06-19T15:19:59.907Z," 9060"
2019-06-19T15:24:55.879Z," 8748"
2019-06-19T15:29:52.139Z," 8844"
2019-06-19T15:34:49.132Z," 5984"
2019-06-19T15:39:44.709Z," 3720"
2019-06-19T15:44:41.239Z," 3068"
2019-06-19T15:49:37.632Z," 2964"
2019-06-19T15:54:32.825Z," 2924"
2019-06-19T15:59:28.652Z," 2868"
2019-06-19T16:04:24.642Z," 2740"
2019-06-19T16:09:20.613Z," 2708"
2019-06-19T16:14:16.605Z," 2836"
2019-06-19T16:19:12.655Z," 2680"
2019-06-19T16:24:08.541Z," 2604"
2019-06-19T16:29:04.791Z," 2592"
2019-06-19T16:34:00.945Z," 2568"
2019-06-19T16:38:56.917Z," 2620"
2019-06-19T16:43:52.890Z," 2520"
2019-06-19T16:48:49.839Z," 2492"
2019-06-19T16:53:45.666Z," 2428"
2019-06-19T16:58:41.569Z," 2340"
2019-06-19T17:03:37.669Z," 2184"
2019-06-19T17:08:34.519Z," 2132"
2019-06-19T17:13:30.263Z," 1728"
2019-06-19T17:18:25.993Z," 3096"
2019-06-19T17:23:22.019Z," 2388"
2019-06-19T17:28:17.956Z," 2880"
2019-06-19T17:33:15.067Z," 2244"
2019-06-19T17:38:10.972Z," 1824"
2019-06-19T17:43:07.263Z," 1308"
2019-06-19T17:48:06.179Z," 1284"
2019-06-19T17:53:01.487Z," 1572"
2019-06-19T17:57:58.422Z," 1524"
2019-06-19T18:02:53.891Z,"  732"
2019-06-19T18:07:49.972Z,"   60"
2019-06-19T18:12:46.409Z,"   92"
2019-06-19T18:17:42.278Z,"  200"
2019-06-19T18:22:37.164Z,"  600"
2019-06-19T18:27:32.237Z,"  908"
2019-06-19T18:32:27.581Z,"  864"
2019-06-19T18:37:23.308Z,"  696"
2019-06-19T18:42:19.194Z,"  556"
2019-06-19T18:47:14.941Z,"  304"
2019-06-19T18:52:10.890Z,"  180"
2019-06-19T18:57:08.747Z,"  220"
2019-06-19T19:02:03.654Z,"  240"
2019-06-19T19:06:59.956Z,"  136"
2019-06-19T19:11:56.905Z,"   56"
2019-06-19T19:16:53.864Z,"   48"
2019-06-19T19:21:49.294Z,"   76"
2019-06-19T19:26:44.921Z,"  156"
2019-06-19T19:31:41.209Z,"   80"
2019-06-19T19:36:37.235Z,"   40"
2019-06-19T19:41:34.021Z,"   40"
2019-06-19T19:46:29.631Z,"   28"
2019-06-19T19:51:25.506Z,"   28"
2019-06-19T19:56:21.872Z,"   20"
2019-06-19T20:01:17.707Z,"   12"
2019-06-19T20:06:13.786Z,"    8"
2019-06-19T20:11:09.764Z,"    4"
2019-06-19T20:16:05.538Z,"    0"
2019-06-19T20:21:01.604Z,"    0"
2019-06-19T20:25:57.421Z,"    0"
2019-06-19T20:30:53.713Z,"    0"
2019-06-19T20:35:49.930Z,"    0"
2019-06-19T20:41:02.119Z,"    0"
2019-06-19T20:45:45.410Z,"    0"
2019-06-19T20:50:41.401Z,"    0"
2019-06-19T20:55:38.764Z,"    0"
2019-06-19T21:00:34.277Z,"    0"
2019-06-19T21:05:30.695Z,"    0"
2019-06-19T21:10:26.465Z,"    0"
2019-06-19T21:15:22.176Z,"    0"
2019-06-19T21:20:19.114Z,"    0"
2019-06-19T21:25:15.855Z,"    0"
2019-06-19T21:30:12.407Z,"    0"
2019-06-19T21:35:07.900Z,"    0"
2019-06-19T21:40:04.220Z,"    0"
2019-06-19T21:44:59.914Z,"    0"
2019-06-19T21:49:55.814Z,"    0"
2019-06-19T21:54:51.804Z,"    0"
2019-06-19T21:59:47.837Z,"    0"
2019-06-19T22:04:43.488Z,"    0"
2019-06-19T22:09:39.297Z,"    0"
2019-06-19T22:14:35.132Z,"    0"
2019-06-19T22:19:31.076Z,"    0"
2019-06-19T22:24:27.090Z,"    0"
2019-06-19T22:29:22.878Z,"    0"
2019-06-19T22:34:18.730Z,"    0"
2019-06-19T22:39:14.492Z,"    0"
2019-06-19T22:44:10.331Z,"    0"
2019-06-19T22:49:06.773Z,"    0"
2019-06-19T22:54:02.776Z,"    0"
2019-06-19T22:58:58.547Z,"    0"
2019-06-19T23:03:55.023Z,"    0"
2019-06-19T23:08:50.891Z,"    0"
2019-06-19T23:13:47.053Z,"    0"
2019-06-19T23:18:43.902Z,"    0"
2019-06-19T23:23:39.540Z,"    0"
2019-06-19T23:28:35.828Z,"    0"
2019-06-19T23:33:31.771Z,"    0"
2019-06-19T23:38:27.748Z,"    0"
2019-06-19T23:43:24.709Z,"    0"
2019-06-19T23:48:20.177Z,"    0"
2019-06-19T23:53:16.048Z,"    0"
2019-06-19T23:58:12.576Z,"    0"
